sensor_id;sensor_type;location;lat;lon;timestamp;temperature;humidity
10986;DHT22;5546;48.714;8.738;2023-07-31T00:01:35;17.60;99.90
10986;DHT22;5546;48.714;8.738;2023-07-31T00:04:01;17.50;99.90
10986;DHT22;5546;48.714;8.738;2023-07-31T00:06:26;17.60;99.90
10986;DHT22;5546;48.714;8.738;2023-07-31T00:08:52;17.20;99.90
10986;DHT22;5546;48.714;8.738;2023-07-31T00:11:17;17.30;99.90
10986;DHT22;5546;48.714;8.738;2023-07-31T00:13:43;17.30;99.90
10986;DHT22;5546;48.714;8.738;2023-07-31T00:16:08;17.40;99.90
10986;DHT22;5546;48.714;8.738;2023-07-31T00:18:34;17.40;99.90
10986;DHT22;5546;48.714;8.738;2023-07-31T00:20:59;17.70;99.90
10986;DHT22;5546;48.714;8.738;2023-07-31T00:23:25;17.70;99.90
10986;DHT22;5546;48.714;8.738;2023-07-31T00:25:50;17.60;99.90
10986;DHT22;5546;48.714;8.738;2023-07-31T00:28:16;17.40;99.90
10986;DHT22;5546;48.714;8.738;2023-07-31T00:30:41;17.40;99.90
10986;DHT22;5546;48.714;8.738;2023-07-31T00:33:07;17.40;99.90
10986;DHT22;5546;48.714;8.738;2023-07-31T00:35:32;17.50;99.90
10986;DHT22;5546;48.714;8.738;2023-07-31T00:37:58;17.60;99.90
10986;DHT22;5546;48.714;8.738;2023-07-31T00:40:24;17.30;99.90
10986;DHT22;5546;48.714;8.738;2023-07-31T00:42:49;17.40;99.90
10986;DHT22;5546;48.714;8.738;2023-07-31T00:45:15;17.30;99.90
10986;DHT22;5546;48.714;8.738;2023-07-31T00:47:40;17.30;99.90
10986;DHT22;5546;48.714;8.738;2023-07-31T00:50:07;17.30;99.90
10986;DHT22;5546;48.714;8.738;2023-07-31T00:52:33;17.10;99.90
10986;DHT22;5546;48.714;8.738;2023-07-31T00:54:59;17.30;99.90
10986;DHT22;5546;48.714;8.738;2023-07-31T00:57:24;17.30;99.90
10986;DHT22;5546;48.714;8.738;2023-07-31T00:59:50;17.30;99.90
10986;DHT22;5546;48.714;8.738;2023-07-31T01:02:15;17.20;99.90
10986;DHT22;5546;48.714;8.738;2023-07-31T01:04:42;17.00;99.90
10986;DHT22;5546;48.714;8.738;2023-07-31T01:07:14;17.00;99.90
10986;DHT22;5546;48.714;8.738;2023-07-31T01:10:08;17.20;99.90
10986;DHT22;5546;48.714;8.738;2023-07-31T01:12:37;17.00;99.90
10986;DHT22;5546;48.714;8.738;2023-07-31T01:15:07;17.00;99.90
10986;DHT22;5546;48.714;8.738;2023-07-31T01:17:37;17.20;99.90
10986;DHT22;5546;48.714;8.738;2023-07-31T01:20:05;17.10;99.90
10986;DHT22;5546;48.714;8.738;2023-07-31T01:23:08;17.10;99.90
10986;DHT22;5546;48.714;8.738;2023-07-31T01:31:02;17.00;99.90
10986;DHT22;5546;48.714;8.738;2023-07-31T01:33:30;17.30;99.90
10986;DHT22;5546;48.714;8.738;2023-07-31T01:35:56;17.80;99.90
10986;DHT22;5546;48.714;8.738;2023-07-31T01:38:22;17.10;99.90
10986;DHT22;5546;48.714;8.738;2023-07-31T01:40:51;16.90;99.90
10986;DHT22;5546;48.714;8.738;2023-07-31T01:43:18;17.00;99.90
10986;DHT22;5546;48.714;8.738;2023-07-31T01:45:43;16.90;99.90
10986;DHT22;5546;48.714;8.738;2023-07-31T01:48:09;17.00;99.90
10986;DHT22;5546;48.714;8.738;2023-07-31T01:50:34;17.10;99.90
10986;DHT22;5546;48.714;8.738;2023-07-31T01:53:00;17.20;99.90
10986;DHT22;5546;48.714;8.738;2023-07-31T01:55:25;17.30;99.90
10986;DHT22;5546;48.714;8.738;2023-07-31T01:57:51;17.10;99.90
10986;DHT22;5546;48.714;8.738;2023-07-31T02:00:17;17.10;99.90
10986;DHT22;5546;48.714;8.738;2023-07-31T02:02:43;17.20;99.90
10986;DHT22;5546;48.714;8.738;2023-07-31T02:05:09;17.10;99.90
10986;DHT22;5546;48.714;8.738;2023-07-31T02:10:00;17.00;99.90
10986;DHT22;5546;48.714;8.738;2023-07-31T02:12:26;17.00;99.90
10986;DHT22;5546;48.714;8.738;2023-07-31T02:14:51;17.10;99.90
10986;DHT22;5546;48.714;8.738;2023-07-31T02:17:17;17.00;99.90
10986;DHT22;5546;48.714;8.738;2023-07-31T02:19:42;17.00;99.90
10986;DHT22;5546;48.714;8.738;2023-07-31T02:22:08;16.90;99.90
10986;DHT22;5546;48.714;8.738;2023-07-31T02:24:33;17.00;99.90
10986;DHT22;5546;48.714;8.738;2023-07-31T02:26:59;16.90;99.90
10986;DHT22;5546;48.714;8.738;2023-07-31T02:29:24;16.90;99.90
10986;DHT22;5546;48.714;8.738;2023-07-31T02:31:50;17.00;99.90
10986;DHT22;5546;48.714;8.738;2023-07-31T02:34:16;17.00;99.90
10986;DHT22;5546;48.714;8.738;2023-07-31T02:36:41;17.00;99.90
10986;DHT22;5546;48.714;8.738;2023-07-31T02:39:06;16.90;99.90
10986;DHT22;5546;48.714;8.738;2023-07-31T02:41:32;16.80;99.90
10986;DHT22;5546;48.714;8.738;2023-07-31T02:43:58;16.60;99.90
10986;DHT22;5546;48.714;8.738;2023-07-31T02:46:23;16.80;99.90
10986;DHT22;5546;48.714;8.738;2023-07-31T02:48:50;19.10;99.90
10986;DHT22;5546;48.714;8.738;2023-07-31T02:51:16;16.60;99.90
10986;DHT22;5546;48.714;8.738;2023-07-31T02:53:41;16.60;99.90
10986;DHT22;5546;48.714;8.738;2023-07-31T02:56:07;16.40;99.90
10986;DHT22;5546;48.714;8.738;2023-07-31T02:58:32;16.40;99.90
10986;DHT22;5546;48.714;8.738;2023-07-31T03:00:59;16.70;99.90
10986;DHT22;5546;48.714;8.738;2023-07-31T03:03:24;16.60;99.90
10986;DHT22;5546;48.714;8.738;2023-07-31T03:05:50;16.60;99.90
10986;DHT22;5546;48.714;8.738;2023-07-31T03:08:15;16.60;99.90
10986;DHT22;5546;48.714;8.738;2023-07-31T03:10:41;16.60;99.90
10986;DHT22;5546;48.714;8.738;2023-07-31T03:13:07;16.80;99.90
10986;DHT22;5546;48.714;8.738;2023-07-31T03:15:32;16.70;99.90
10986;DHT22;5546;48.714;8.738;2023-07-31T03:17:58;16.60;99.90
10986;DHT22;5546;48.714;8.738;2023-07-31T03:20:23;16.60;99.90
10986;DHT22;5546;48.714;8.738;2023-07-31T03:22:49;16.50;99.90
10986;DHT22;5546;48.714;8.738;2023-07-31T03:25:14;16.50;99.90
10986;DHT22;5546;48.714;8.738;2023-07-31T03:27:40;16.40;99.90
10986;DHT22;5546;48.714;8.738;2023-07-31T03:30:06;16.50;99.90
10986;DHT22;5546;48.714;8.738;2023-07-31T03:32:32;16.50;99.90
10986;DHT22;5546;48.714;8.738;2023-07-31T03:34:58;16.40;99.90
10986;DHT22;5546;48.714;8.738;2023-07-31T03:37:23;16.30;99.90
10986;DHT22;5546;48.714;8.738;2023-07-31T03:39:49;16.40;99.90
10986;DHT22;5546;48.714;8.738;2023-07-31T03:44:40;15.40;99.90
10986;DHT22;5546;48.714;8.738;2023-07-31T03:47:06;15.10;99.90
10986;DHT22;5546;48.714;8.738;2023-07-31T03:49:31;15.30;99.90
10986;DHT22;5546;48.714;8.738;2023-07-31T03:51:57;15.60;99.90
10986;DHT22;5546;48.714;8.738;2023-07-31T03:54:22;15.90;99.90
10986;DHT22;5546;48.714;8.738;2023-07-31T03:56:48;16.10;99.90
10986;DHT22;5546;48.714;8.738;2023-07-31T03:59:13;16.40;99.90
10986;DHT22;5546;48.714;8.738;2023-07-31T04:01:39;16.40;99.90
10986;DHT22;5546;48.714;8.738;2023-07-31T04:04:04;16.70;99.90
10986;DHT22;5546;48.714;8.738;2023-07-31T04:06:30;16.80;99.90
10986;DHT22;5546;48.714;8.738;2023-07-31T04:08:56;16.90;99.90
10986;DHT22;5546;48.714;8.738;2023-07-31T04:11:21;18.20;99.90
10986;DHT22;5546;48.714;8.738;2023-07-31T04:13:47;16.80;99.90
10986;DHT22;5546;48.714;8.738;2023-07-31T04:16:12;16.90;99.90
10986;DHT22;5546;48.714;8.738;2023-07-31T04:18:38;17.10;99.90
10986;DHT22;5546;48.714;8.738;2023-07-31T04:21:03;17.30;99.90
10986;DHT22;5546;48.714;8.738;2023-07-31T04:23:29;17.10;99.90
10986;DHT22;5546;48.714;8.738;2023-07-31T04:25:55;17.10;99.90
10986;DHT22;5546;48.714;8.738;2023-07-31T04:28:20;17.10;99.90
10986;DHT22;5546;48.714;8.738;2023-07-31T04:30:46;17.40;99.90
10986;DHT22;5546;48.714;8.738;2023-07-31T04:33:12;17.20;99.90
10986;DHT22;5546;48.714;8.738;2023-07-31T04:35:38;17.40;99.90
10986;DHT22;5546;48.714;8.738;2023-07-31T04:38:03;17.40;99.90
10986;DHT22;5546;48.714;8.738;2023-07-31T04:40:29;17.40;99.90
10986;DHT22;5546;48.714;8.738;2023-07-31T04:42:54;17.30;99.90
10986;DHT22;5546;48.714;8.738;2023-07-31T04:45:20;17.30;99.90
10986;DHT22;5546;48.714;8.738;2023-07-31T04:47:45;17.40;99.90
10986;DHT22;5546;48.714;8.738;2023-07-31T04:50:11;17.60;99.90
10986;DHT22;5546;48.714;8.738;2023-07-31T04:52:36;17.70;99.90
10986;DHT22;5546;48.714;8.738;2023-07-31T04:55:02;17.80;99.90
10986;DHT22;5546;48.714;8.738;2023-07-31T04:57:28;17.80;99.90
10986;DHT22;5546;48.714;8.738;2023-07-31T04:59:53;18.00;99.90
10986;DHT22;5546;48.714;8.738;2023-07-31T05:02:19;17.80;99.90
10986;DHT22;5546;48.714;8.738;2023-07-31T05:04:45;17.70;99.90
10986;DHT22;5546;48.714;8.738;2023-07-31T05:07:11;17.70;99.90
10986;DHT22;5546;48.714;8.738;2023-07-31T05:09:36;17.30;99.90
10986;DHT22;5546;48.714;8.738;2023-07-31T05:12:04;17.30;99.90
10986;DHT22;5546;48.714;8.738;2023-07-31T05:14:29;17.20;99.90
10986;DHT22;5546;48.714;8.738;2023-07-31T05:16:55;18.00;99.90
10986;DHT22;5546;48.714;8.738;2023-07-31T05:19:20;17.90;99.90
10986;DHT22;5546;48.714;8.738;2023-07-31T05:21:46;18.40;99.90
10986;DHT22;5546;48.714;8.738;2023-07-31T05:24:11;18.20;99.60
10986;DHT22;5546;48.714;8.738;2023-07-31T05:26:37;18.20;99.90
10986;DHT22;5546;48.714;8.738;2023-07-31T05:29:03;18.30;99.90
10986;DHT22;5546;48.714;8.738;2023-07-31T05:31:29;18.60;99.60
10986;DHT22;5546;48.714;8.738;2023-07-31T05:33:54;18.40;99.80
10986;DHT22;5546;48.714;8.738;2023-07-31T05:36:20;18.10;99.90
10986;DHT22;5546;48.714;8.738;2023-07-31T05:38:45;18.10;99.90
10986;DHT22;5546;48.714;8.738;2023-07-31T05:41:12;18.10;99.90
10986;DHT22;5546;48.714;8.738;2023-07-31T05:43:37;18.40;99.70
10986;DHT22;5546;48.714;8.738;2023-07-31T05:46:03;18.40;98.60
10986;DHT22;5546;48.714;8.738;2023-07-31T05:48:28;18.40;98.90
10986;DHT22;5546;48.714;8.738;2023-07-31T05:50:54;18.00;99.60
10986;DHT22;5546;48.714;8.738;2023-07-31T05:53:19;17.70;99.90
10986;DHT22;5546;48.714;8.738;2023-07-31T05:55:45;17.60;99.90
10986;DHT22;5546;48.714;8.738;2023-07-31T05:58:10;17.70;99.90
10986;DHT22;5546;48.714;8.738;2023-07-31T06:00:36;17.70;99.90
10986;DHT22;5546;48.714;8.738;2023-07-31T06:03:02;18.00;99.90
10986;DHT22;5546;48.714;8.738;2023-07-31T06:05:27;19.00;99.00
10986;DHT22;5546;48.714;8.738;2023-07-31T06:07:55;19.00;99.20
10986;DHT22;5546;48.714;8.738;2023-07-31T06:10:20;19.20;98.20
10986;DHT22;5546;48.714;8.738;2023-07-31T06:12:46;19.10;98.50
10986;DHT22;5546;48.714;8.738;2023-07-31T06:15:12;19.10;98.70
10986;DHT22;5546;48.714;8.738;2023-07-31T06:17:37;19.70;98.40
10986;DHT22;5546;48.714;8.738;2023-07-31T06:20:03;20.20;97.60
10986;DHT22;5546;48.714;8.738;2023-07-31T06:22:30;21.10;95.30
10986;DHT22;5546;48.714;8.738;2023-07-31T06:24:56;22.00;93.50
10986;DHT22;5546;48.714;8.738;2023-07-31T06:27:21;21.40;93.00
10986;DHT22;5546;48.714;8.738;2023-07-31T06:29:47;21.20;93.60
10986;DHT22;5546;48.714;8.738;2023-07-31T06:34:45;20.20;94.30
10986;DHT22;5546;48.714;8.738;2023-07-31T06:37:11;20.20;95.50
10986;DHT22;5546;48.714;8.738;2023-07-31T06:39:36;20.30;95.00
10986;DHT22;5546;48.714;8.738;2023-07-31T06:42:03;20.80;94.00
10986;DHT22;5546;48.714;8.738;2023-07-31T06:44:28;20.40;94.10
10986;DHT22;5546;48.714;8.738;2023-07-31T06:46:54;20.20;94.50
10986;DHT22;5546;48.714;8.738;2023-07-31T06:49:19;20.00;95.10
10986;DHT22;5546;48.714;8.738;2023-07-31T06:51:45;21.30;93.00
10986;DHT22;5546;48.714;8.738;2023-07-31T06:54:10;21.30;93.30
10986;DHT22;5546;48.714;8.738;2023-07-31T06:56:36;21.80;92.40
10986;DHT22;5546;48.714;8.738;2023-07-31T06:59:02;22.20;91.80
10986;DHT22;5546;48.714;8.738;2023-07-31T07:01:28;22.10;91.60
10986;DHT22;5546;48.714;8.738;2023-07-31T07:03:54;21.70;91.80
10986;DHT22;5546;48.714;8.738;2023-07-31T07:06:19;21.80;91.70
10986;DHT22;5546;48.714;8.738;2023-07-31T07:08:45;21.50;92.00
10986;DHT22;5546;48.714;8.738;2023-07-31T07:11:10;21.70;92.10
10986;DHT22;5546;48.714;8.738;2023-07-31T07:13:36;21.20;92.20
10986;DHT22;5546;48.714;8.738;2023-07-31T07:16:02;20.90;93.00
10986;DHT22;5546;48.714;8.738;2023-07-31T07:18:27;20.70;92.80
10986;DHT22;5546;48.714;8.738;2023-07-31T07:20:54;20.70;93.10
10986;DHT22;5546;48.714;8.738;2023-07-31T07:23:20;20.20;94.00
10986;DHT22;5546;48.714;8.738;2023-07-31T07:25:47;19.80;94.80
10986;DHT22;5546;48.714;8.738;2023-07-31T07:28:13;19.90;94.80
10986;DHT22;5546;48.714;8.738;2023-07-31T07:30:38;19.70;95.30
10986;DHT22;5546;48.714;8.738;2023-07-31T07:33:04;19.90;95.00
10986;DHT22;5546;48.714;8.738;2023-07-31T07:35:30;20.00;94.90
10986;DHT22;5546;48.714;8.738;2023-07-31T07:37:58;19.80;95.10
10986;DHT22;5546;48.714;8.738;2023-07-31T07:40:23;20.20;94.70
10986;DHT22;5546;48.714;8.738;2023-07-31T07:42:49;20.80;93.60
10986;DHT22;5546;48.714;8.738;2023-07-31T07:45:15;20.80;93.90
10986;DHT22;5546;48.714;8.738;2023-07-31T07:47:41;21.20;93.00
10986;DHT22;5546;48.714;8.738;2023-07-31T07:50:07;21.70;92.70
10986;DHT22;5546;48.714;8.738;2023-07-31T07:52:37;22.00;91.70
10986;DHT22;5546;48.714;8.738;2023-07-31T07:55:03;21.10;92.90
10986;DHT22;5546;48.714;8.738;2023-07-31T07:57:29;21.40;92.80
10986;DHT22;5546;48.714;8.738;2023-07-31T07:59:54;21.40;92.30
10986;DHT22;5546;48.714;8.738;2023-07-31T08:02:23;20.60;93.40
10986;DHT22;5546;48.714;8.738;2023-07-31T08:04:48;20.50;93.50
10986;DHT22;5546;48.714;8.738;2023-07-31T08:07:14;20.60;93.80
10986;DHT22;5546;48.714;8.738;2023-07-31T08:09:39;21.20;93.10
10986;DHT22;5546;48.714;8.738;2023-07-31T08:12:06;21.60;92.70
10986;DHT22;5546;48.714;8.738;2023-07-31T08:14:32;22.00;91.80
10986;DHT22;5546;48.714;8.738;2023-07-31T08:16:57;22.60;91.30
10986;DHT22;5546;48.714;8.738;2023-07-31T08:19:48;22.70;90.90
10986;DHT22;5546;48.714;8.738;2023-07-31T08:22:13;22.50;90.50
10986;DHT22;5546;48.714;8.738;2023-07-31T08:24:39;22.20;90.90
10986;DHT22;5546;48.714;8.738;2023-07-31T08:27:06;22.10;91.00
10986;DHT22;5546;48.714;8.738;2023-07-31T08:29:32;21.90;91.10
10986;DHT22;5546;48.714;8.738;2023-07-31T08:31:57;21.90;91.30
10986;DHT22;5546;48.714;8.738;2023-07-31T08:34:22;22.30;90.90
10986;DHT22;5546;48.714;8.738;2023-07-31T08:36:48;22.70;90.70
10986;DHT22;5546;48.714;8.738;2023-07-31T08:39:13;22.40;90.30
10986;DHT22;5546;48.714;8.738;2023-07-31T08:41:39;22.40;90.60
10986;DHT22;5546;48.714;8.738;2023-07-31T08:44:05;22.60;90.10
10986;DHT22;5546;48.714;8.738;2023-07-31T08:46:32;24.40;85.70
10986;DHT22;5546;48.714;8.738;2023-07-31T08:48:59;24.40;86.20
10986;DHT22;5546;48.714;8.738;2023-07-31T08:51:25;23.90;85.50
10986;DHT22;5546;48.714;8.738;2023-07-31T08:53:53;24.30;85.70
10986;DHT22;5546;48.714;8.738;2023-07-31T08:56:18;24.70;84.40
10986;DHT22;5546;48.714;8.738;2023-07-31T08:58:46;25.10;82.20
10986;DHT22;5546;48.714;8.738;2023-07-31T09:01:13;25.00;82.50
10986;DHT22;5546;48.714;8.738;2023-07-31T09:03:39;25.60;78.30
10986;DHT22;5546;48.714;8.738;2023-07-31T09:06:06;26.10;78.00
10986;DHT22;5546;48.714;8.738;2023-07-31T09:08:32;26.10;78.40
10986;DHT22;5546;48.714;8.738;2023-07-31T09:11:02;26.00;77.20
10986;DHT22;5546;48.714;8.738;2023-07-31T09:13:31;26.00;76.40
10986;DHT22;5546;48.714;8.738;2023-07-31T09:15:57;25.40;77.40
10986;DHT22;5546;48.714;8.738;2023-07-31T09:18:23;25.80;77.30
10986;DHT22;5546;48.714;8.738;2023-07-31T09:21:09;25.80;75.20
10986;DHT22;5546;48.714;8.738;2023-07-31T09:23:45;25.90;76.10
10986;DHT22;5546;48.714;8.738;2023-07-31T09:26:10;26.20;74.60
10986;DHT22;5546;48.714;8.738;2023-07-31T09:28:36;26.20;75.10
10986;DHT22;5546;48.714;8.738;2023-07-31T09:31:02;25.90;74.80
10986;DHT22;5546;48.714;8.738;2023-07-31T09:33:27;25.70;75.40
10986;DHT22;5546;48.714;8.738;2023-07-31T09:35:53;25.50;74.80
10986;DHT22;5546;48.714;8.738;2023-07-31T09:38:18;25.30;75.80
10986;DHT22;5546;48.714;8.738;2023-07-31T09:40:46;25.60;76.30
10986;DHT22;5546;48.714;8.738;2023-07-31T09:43:21;26.40;74.20
10986;DHT22;5546;48.714;8.738;2023-07-31T09:45:48;26.50;74.80
10986;DHT22;5546;48.714;8.738;2023-07-31T09:48:15;27.70;70.60
10986;DHT22;5546;48.714;8.738;2023-07-31T09:50:46;28.20;70.10
10986;DHT22;5546;48.714;8.738;2023-07-31T09:53:12;28.30;68.50
10986;DHT22;5546;48.714;8.738;2023-07-31T09:55:39;29.40;67.00
10986;DHT22;5546;48.714;8.738;2023-07-31T09:58:07;28.70;65.20
10986;DHT22;5546;48.714;8.738;2023-07-31T10:00:34;28.60;66.20
10986;DHT22;5546;48.714;8.738;2023-07-31T10:03:01;29.10;65.60
10986;DHT22;5546;48.714;8.738;2023-07-31T10:05:31;29.70;64.20
10986;DHT22;5546;48.714;8.738;2023-07-31T10:07:58;29.60;64.00
10986;DHT22;5546;48.714;8.738;2023-07-31T10:10:25;29.50;64.50
10986;DHT22;5546;48.714;8.738;2023-07-31T10:12:52;26.90;68.60
10986;DHT22;5546;48.714;8.738;2023-07-31T10:15:18;27.50;69.20
10986;DHT22;5546;48.714;8.738;2023-07-31T10:17:48;28.80;65.00
10986;DHT22;5546;48.714;8.738;2023-07-31T10:20:15;28.80;65.60
10986;DHT22;5546;48.714;8.738;2023-07-31T10:22:42;30.70;62.20
10986;DHT22;5546;48.714;8.738;2023-07-31T10:25:09;32.00;58.70
10986;DHT22;5546;48.714;8.738;2023-07-31T10:27:36;31.80;58.40
10986;DHT22;5546;48.714;8.738;2023-07-31T10:30:05;32.10;56.60
10986;DHT22;5546;48.714;8.738;2023-07-31T10:32:32;32.00;56.60
10986;DHT22;5546;48.714;8.738;2023-07-31T10:34:58;32.90;55.20
10986;DHT22;5546;48.714;8.738;2023-07-31T10:39:57;33.80;53.40
10986;DHT22;5546;48.714;8.738;2023-07-31T10:42:30;33.40;53.80
10986;DHT22;5546;48.714;8.738;2023-07-31T10:44:58;33.90;52.50
10986;DHT22;5546;48.714;8.738;2023-07-31T10:47:24;33.90;51.10
10986;DHT22;5546;48.714;8.738;2023-07-31T10:49:50;33.10;52.40
10986;DHT22;5546;48.714;8.738;2023-07-31T10:52:20;32.20;54.20
10986;DHT22;5546;48.714;8.738;2023-07-31T10:54:49;31.80;54.40
10986;DHT22;5546;48.714;8.738;2023-07-31T10:57:22;31.50;53.90
10986;DHT22;5546;48.714;8.738;2023-07-31T10:59:49;30.20;55.50
10986;DHT22;5546;48.714;8.738;2023-07-31T11:02:25;30.10;56.30
10986;DHT22;5546;48.714;8.738;2023-07-31T11:05:10;29.30;57.50
10986;DHT22;5546;48.714;8.738;2023-07-31T11:07:49;28.70;59.10
10986;DHT22;5546;48.714;8.738;2023-07-31T11:10:18;28.50;58.50
10986;DHT22;5546;48.714;8.738;2023-07-31T11:12:45;28.40;58.60
10986;DHT22;5546;48.714;8.738;2023-07-31T11:15:10;27.90;59.30
10986;DHT22;5546;48.714;8.738;2023-07-31T11:17:39;27.90;61.30
10986;DHT22;5546;48.714;8.738;2023-07-31T11:20:06;27.80;60.90
10986;DHT22;5546;48.714;8.738;2023-07-31T11:22:34;27.30;62.00
10986;DHT22;5546;48.714;8.738;2023-07-31T11:25:00;27.20;62.60
10986;DHT22;5546;48.714;8.738;2023-07-31T11:27:28;27.60;62.60
10986;DHT22;5546;48.714;8.738;2023-07-31T11:30:00;27.00;62.20
10986;DHT22;5546;48.714;8.738;2023-07-31T11:32:26;26.70;62.50
10986;DHT22;5546;48.714;8.738;2023-07-31T11:34:53;27.00;63.40
10986;DHT22;5546;48.714;8.738;2023-07-31T11:37:18;26.90;62.60
10986;DHT22;5546;48.714;8.738;2023-07-31T11:39:44;26.70;63.10
10986;DHT22;5546;48.714;8.738;2023-07-31T11:42:23;27.10;63.10
10986;DHT22;5546;48.714;8.738;2023-07-31T11:44:48;27.10;63.60
10986;DHT22;5546;48.714;8.738;2023-07-31T11:47:15;27.70;61.60
10986;DHT22;5546;48.714;8.738;2023-07-31T11:49:42;26.90;63.90
10986;DHT22;5546;48.714;8.738;2023-07-31T11:52:08;27.20;63.80
10986;DHT22;5546;48.714;8.738;2023-07-31T11:54:34;26.70;64.50
10986;DHT22;5546;48.714;8.738;2023-07-31T11:57:00;27.10;63.80
10986;DHT22;5546;48.714;8.738;2023-07-31T11:59:27;27.10;64.60
10986;DHT22;5546;48.714;8.738;2023-07-31T12:01:52;27.20;64.20
10986;DHT22;5546;48.714;8.738;2023-07-31T12:04:19;27.50;64.10
10986;DHT22;5546;48.714;8.738;2023-07-31T12:06:47;27.40;63.70
10986;DHT22;5546;48.714;8.738;2023-07-31T12:09:15;26.80;65.00
10986;DHT22;5546;48.714;8.738;2023-07-31T12:11:44;26.80;65.80
10986;DHT22;5546;48.714;8.738;2023-07-31T12:14:21;26.30;67.20
10986;DHT22;5546;48.714;8.738;2023-07-31T12:19:13;26.60;67.20
10986;DHT22;5546;48.714;8.738;2023-07-31T12:21:39;26.60;67.70
10986;DHT22;5546;48.714;8.738;2023-07-31T12:24:04;27.20;67.70
10986;DHT22;5546;48.714;8.738;2023-07-31T12:26:36;27.70;66.00
10986;DHT22;5546;48.714;8.738;2023-07-31T12:29:01;29.00;62.20
10986;DHT22;5546;48.714;8.738;2023-07-31T12:31:28;29.00;62.80
10986;DHT22;5546;48.714;8.738;2023-07-31T12:33:55;29.80;60.50
10986;DHT22;5546;48.714;8.738;2023-07-31T12:36:23;27.80;63.00
10986;DHT22;5546;48.714;8.738;2023-07-31T12:38:50;28.30;62.80
10986;DHT22;5546;48.714;8.738;2023-07-31T12:41:16;28.40;63.40
10986;DHT22;5546;48.714;8.738;2023-07-31T12:43:43;27.10;65.20
10986;DHT22;5546;48.714;8.738;2023-07-31T12:46:09;26.70;66.20
10986;DHT22;5546;48.714;8.738;2023-07-31T12:48:36;28.50;64.30
10986;DHT22;5546;48.714;8.738;2023-07-31T12:51:02;28.30;62.20
10986;DHT22;5546;48.714;8.738;2023-07-31T12:53:28;28.30;63.80
10986;DHT22;5546;48.714;8.738;2023-07-31T12:55:55;29.30;59.80
10986;DHT22;5546;48.714;8.738;2023-07-31T12:58:21;29.30;60.40
10986;DHT22;5546;48.714;8.738;2023-07-31T13:00:46;30.40;59.00
10986;DHT22;5546;48.714;8.738;2023-07-31T13:03:12;30.40;59.40
10986;DHT22;5546;48.714;8.738;2023-07-31T13:05:37;31.20;58.20
10986;DHT22;5546;48.714;8.738;2023-07-31T13:08:03;32.30;56.10
10986;DHT22;5546;48.714;8.738;2023-07-31T13:10:28;32.80;55.60
10986;DHT22;5546;48.714;8.738;2023-07-31T13:12:55;33.70;54.70
10986;DHT22;5546;48.714;8.738;2023-07-31T13:15:21;34.40;52.60
10986;DHT22;5546;48.714;8.738;2023-07-31T13:17:46;34.30;51.70
10986;DHT22;5546;48.714;8.738;2023-07-31T13:20:12;33.80;53.00
10986;DHT22;5546;48.714;8.738;2023-07-31T13:22:38;32.90;53.90
10986;DHT22;5546;48.714;8.738;2023-07-31T13:25:03;30.30;56.80
10986;DHT22;5546;48.714;8.738;2023-07-31T13:27:29;27.90;61.40
10986;DHT22;5546;48.714;8.738;2023-07-31T13:29:55;27.50;63.90
10986;DHT22;5546;48.714;8.738;2023-07-31T13:32:21;27.10;64.30
10986;DHT22;5546;48.714;8.738;2023-07-31T13:34:47;26.80;65.50
10986;DHT22;5546;48.714;8.738;2023-07-31T13:37:13;26.90;66.00
10986;DHT22;5546;48.714;8.738;2023-07-31T13:39:39;26.50;66.80
10986;DHT22;5546;48.714;8.738;2023-07-31T13:42:06;26.40;69.70
10986;DHT22;5546;48.714;8.738;2023-07-31T13:44:34;27.00;66.10
10986;DHT22;5546;48.714;8.738;2023-07-31T13:46:59;27.00;65.90
10986;DHT22;5546;48.714;8.738;2023-07-31T13:49:26;26.90;65.60
10986;DHT22;5546;48.714;8.738;2023-07-31T13:51:51;26.90;66.40
10986;DHT22;5546;48.714;8.738;2023-07-31T13:54:17;27.30;65.70
10986;DHT22;5546;48.714;8.738;2023-07-31T13:56:43;27.90;63.40
10986;DHT22;5546;48.714;8.738;2023-07-31T13:59:08;28.20;63.30
10986;DHT22;5546;48.714;8.738;2023-07-31T14:01:34;28.70;60.90
10986;DHT22;5546;48.714;8.738;2023-07-31T14:03:59;28.90;60.70
10986;DHT22;5546;48.714;8.738;2023-07-31T14:06:25;28.10;62.10
10986;DHT22;5546;48.714;8.738;2023-07-31T14:08:50;28.40;60.80
10986;DHT22;5546;48.714;8.738;2023-07-31T14:11:16;28.60;60.40
10986;DHT22;5546;48.714;8.738;2023-07-31T14:13:41;28.50;60.10
10986;DHT22;5546;48.714;8.738;2023-07-31T14:16:07;28.90;60.60
10986;DHT22;5546;48.714;8.738;2023-07-31T14:18:32;28.90;59.60
10986;DHT22;5546;48.714;8.738;2023-07-31T14:25:50;28.80;60.20
10986;DHT22;5546;48.714;8.738;2023-07-31T14:28:15;28.80;59.90
10986;DHT22;5546;48.714;8.738;2023-07-31T14:30:41;28.60;59.90
10986;DHT22;5546;48.714;8.738;2023-07-31T14:35:34;28.80;59.30
10986;DHT22;5546;48.714;8.738;2023-07-31T14:38:00;28.90;60.10
10986;DHT22;5546;48.714;8.738;2023-07-31T14:40:25;28.90;59.80
10986;DHT22;5546;48.714;8.738;2023-07-31T14:42:51;29.20;58.50
10986;DHT22;5546;48.714;8.738;2023-07-31T14:45:16;29.20;58.10
10986;DHT22;5546;48.714;8.738;2023-07-31T14:47:42;29.10;58.90
10986;DHT22;5546;48.714;8.738;2023-07-31T14:50:08;28.50;59.10
10986;DHT22;5546;48.714;8.738;2023-07-31T14:52:33;27.80;61.30
10986;DHT22;5546;48.714;8.738;2023-07-31T14:57:25;27.50;63.00
10986;DHT22;5546;48.714;8.738;2023-07-31T14:59:51;27.50;63.00
10986;DHT22;5546;48.714;8.738;2023-07-31T15:02:16;27.40;63.90
10986;DHT22;5546;48.714;8.738;2023-07-31T15:04:42;27.60;63.60
10986;DHT22;5546;48.714;8.738;2023-07-31T15:07:07;27.70;64.10
10986;DHT22;5546;48.714;8.738;2023-07-31T15:09:33;28.10;64.10
10986;DHT22;5546;48.714;8.738;2023-07-31T15:11:58;28.20;62.30
10986;DHT22;5546;48.714;8.738;2023-07-31T15:14:24;28.30;62.20
10986;DHT22;5546;48.714;8.738;2023-07-31T15:16:50;28.20;62.60
10986;DHT22;5546;48.714;8.738;2023-07-31T15:19:16;28.00;63.10
10986;DHT22;5546;48.714;8.738;2023-07-31T15:21:42;28.00;63.80
10986;DHT22;5546;48.714;8.738;2023-07-31T15:24:08;27.90;66.40
10986;DHT22;5546;48.714;8.738;2023-07-31T15:26:34;28.00;67.00
10986;DHT22;5546;48.714;8.738;2023-07-31T15:29:06;28.10;62.20
10986;DHT22;5546;48.714;8.738;2023-07-31T15:31:40;27.90;63.00
10986;DHT22;5546;48.714;8.738;2023-07-31T15:34:05;27.70;63.80
10986;DHT22;5546;48.714;8.738;2023-07-31T15:36:31;28.00;64.40
10986;DHT22;5546;48.714;8.738;2023-07-31T15:38:57;28.00;66.60
10986;DHT22;5546;48.714;8.738;2023-07-31T15:41:23;28.00;67.30
10986;DHT22;5546;48.714;8.738;2023-07-31T15:43:49;27.10;65.90
10986;DHT22;5546;48.714;8.738;2023-07-31T15:46:14;27.20;65.60
10986;DHT22;5546;48.714;8.738;2023-07-31T15:48:40;27.30;66.30
10986;DHT22;5546;48.714;8.738;2023-07-31T15:51:05;27.40;65.70
10986;DHT22;5546;48.714;8.738;2023-07-31T15:53:31;27.30;66.00
10986;DHT22;5546;48.714;8.738;2023-07-31T15:55:57;27.40;65.80
10986;DHT22;5546;48.714;8.738;2023-07-31T15:58:22;27.10;66.40
10986;DHT22;5546;48.714;8.738;2023-07-31T16:00:48;26.50;68.30
10986;DHT22;5546;48.714;8.738;2023-07-31T16:03:14;26.70;67.60
10986;DHT22;5546;48.714;8.738;2023-07-31T16:05:39;26.80;68.30
10986;DHT22;5546;48.714;8.738;2023-07-31T16:08:05;26.90;68.10